createdAt,value
2023-02-12T00:00:04.069Z,39.2
2023-02-12T00:03:05.337Z,34.8
2023-02-12T00:06:07.315Z,33.9
2023-02-12T00:09:09.302Z,37.5
2023-02-12T00:12:11.251Z,37.2
2023-02-12T00:15:13.247Z,37.8
2023-02-12T00:18:15.207Z,38.4
2023-02-12T00:21:17.166Z,33.9
2023-02-12T00:24:19.135Z,35.3
2023-02-12T00:27:21.068Z,33.2
2023-02-12T00:30:23.091Z,37.9
2023-02-12T00:33:25.017Z,37.5
2023-02-12T00:36:26.936Z,34.6
2023-02-12T00:39:28.910Z,36.6
2023-02-12T00:42:30.860Z,41.5
2023-02-12T00:45:32.844Z,36
2023-02-12T00:48:34.803Z,37
2023-02-12T00:51:36.792Z,39.1
2023-02-12T00:54:38.753Z,37.7
2023-02-12T00:57:40.665Z,33.5
2023-02-12T01:00:42.618Z,30.3
2023-02-12T01:03:44.581Z,41.5
2023-02-12T01:06:46.581Z,37.8
2023-02-12T01:09:48.497Z,39.5
2023-02-12T01:12:50.485Z,41.8
2023-02-12T01:15:52.587Z,41.9
2023-02-12T01:18:55.894Z,36.6
2023-02-12T01:21:56.378Z,44.4
2023-02-12T01:24:58.349Z,36
2023-02-12T01:28:00.327Z,36.2
2023-02-12T01:31:02.318Z,34.5
2023-02-12T01:34:04.201Z,35.9
2023-02-12T01:37:06.152Z,29.7
2023-02-12T01:40:08.137Z,34.9
2023-02-12T01:43:10.055Z,35
2023-02-12T01:46:12.127Z,32.2
2023-02-12T01:49:14.010Z,32.9
2023-02-12T01:52:15.990Z,29.5
2023-02-12T01:55:17.938Z,29.7
2023-02-12T01:58:19.900Z,28.4
2023-02-12T02:01:21.923Z,34.6
2023-02-12T02:04:23.825Z,30
2023-02-12T02:07:25.780Z,30.7
2023-02-12T02:10:27.768Z,32
2023-02-12T02:13:29.739Z,32.9
2023-02-12T02:16:31.751Z,25.1
2023-02-12T02:19:33.659Z,31.2
2023-02-12T02:22:35.584Z,30.2
2023-02-12T02:25:37.580Z,32.4
2023-02-12T02:28:39.597Z,30.6
2023-02-12T02:31:41.550Z,30.7
2023-02-12T02:34:43.474Z,29.5
2023-02-12T02:37:45.442Z,32.7
2023-02-12T02:40:47.377Z,27.4
2023-02-12T02:43:49.342Z,29.1
2023-02-12T02:46:51.495Z,28.5
2023-02-12T02:49:53.273Z,32.4
2023-02-12T02:52:55.229Z,30.1
2023-02-12T02:55:57.487Z,36.2
2023-02-12T02:58:59.221Z,33
2023-02-12T03:02:01.147Z,29.7
2023-02-12T03:05:03.114Z,32.4
2023-02-12T03:08:05.108Z,34.1
2023-02-12T03:11:07.028Z,39.9
2023-02-12T03:14:09.004Z,34.1
2023-02-12T03:17:10.964Z,34.1
2023-02-12T03:20:12.936Z,31.2
2023-02-12T03:23:14.908Z,30.7
2023-02-12T03:26:16.840Z,30.4
2023-02-12T03:29:18.814Z,35.4
2023-02-12T03:32:20.800Z,45.1
2023-02-12T03:35:22.720Z,34.2
2023-02-12T03:38:24.662Z,30.8
2023-02-12T03:41:26.652Z,38.7
2023-02-12T03:44:28.611Z,31.6
2023-02-12T03:47:30.625Z,38.2
2023-02-12T03:50:32.582Z,48.5
2023-02-12T03:53:34.518Z,41
2023-02-12T03:56:36.741Z,43.5
2023-02-12T03:59:38.559Z,45.2
2023-02-12T04:02:40.471Z,43.2
2023-02-12T04:05:42.452Z,47.1
2023-02-12T04:08:44.422Z,36.7
2023-02-12T04:11:46.339Z,43.8
2023-02-12T04:14:48.297Z,47.8
2023-02-12T04:17:50.246Z,36.8
2023-02-12T04:20:52.217Z,34.4
2023-02-12T04:23:54.171Z,35.1
2023-02-12T04:26:56.128Z,36.9
2023-02-12T04:29:58.143Z,35
2023-02-12T04:33:00.085Z,33.9
2023-02-12T04:36:02.051Z,42.3
2023-02-12T04:39:04.019Z,32.8
2023-02-12T04:42:05.969Z,40.5
2023-02-12T04:45:07.911Z,37
2023-02-12T04:48:09.935Z,35.1
2023-02-12T04:51:11.834Z,34.3
2023-02-12T04:54:13.836Z,31.8
2023-02-12T04:57:15.778Z,43.8
2023-02-12T05:00:17.762Z,35.4
2023-02-12T05:03:19.737Z,46
2023-02-12T05:06:21.652Z,36
2023-02-12T05:09:23.616Z,37.4
2023-02-12T05:12:25.570Z,38.5
2023-02-12T05:15:27.584Z,39.4
2023-02-12T05:18:29.508Z,38.8
2023-02-12T05:21:31.475Z,38.8
2023-02-12T05:24:33.433Z,39.4
2023-02-12T05:27:35.401Z,36.1
2023-02-12T05:30:37.443Z,37.2
2023-02-12T05:33:39.349Z,36.7
2023-02-12T05:36:41.315Z,33.8
2023-02-12T05:39:43.274Z,31.4
2023-02-12T05:42:45.191Z,35.2
2023-02-12T05:45:47.172Z,33.1
2023-02-12T05:48:49.144Z,38.7
2023-02-12T05:51:51.097Z,38.1
2023-02-12T05:54:53.044Z,43.1
2023-02-12T05:57:54.998Z,42.5
2023-02-12T06:00:56.961Z,42.8
2023-02-12T06:03:58.986Z,43
2023-02-12T06:07:00.893Z,42.2
2023-02-12T06:10:02.891Z,40.2
2023-02-12T06:13:04.839Z,38.4
2023-02-12T06:16:07.116Z,37.5
2023-02-12T06:19:08.768Z,39.2
2023-02-12T06:22:10.696Z,38.2
2023-02-12T06:25:12.662Z,45.6
2023-02-12T06:28:14.654Z,44
2023-02-12T06:31:16.676Z,42.1
2023-02-12T06:34:18.552Z,41.7
2023-02-12T06:37:20.535Z,45.3
2023-02-12T06:40:22.537Z,40.2
2023-02-12T06:43:24.493Z,44.1
2023-02-12T06:46:26.485Z,45.3
2023-02-12T06:49:28.383Z,48.6
2023-02-12T06:52:30.358Z,50.2
2023-02-12T06:55:32.356Z,51.6
2023-02-12T06:58:34.308Z,38.4
2023-02-12T07:01:36.253Z,45.9
2023-02-12T07:04:38.216Z,41.4
2023-02-12T07:07:40.189Z,41.9
2023-02-12T07:10:42.124Z,41.8
2023-02-12T07:13:44.132Z,49.8
2023-02-12T07:16:46.104Z,44.2
2023-02-12T07:19:48.054Z,42.4
2023-02-12T07:22:49.993Z,45.5
2023-02-12T07:25:51.952Z,54.9
2023-02-12T07:28:53.913Z,45.1
2023-02-12T07:31:56.040Z,58.4
2023-02-12T07:34:57.844Z,67
2023-02-12T07:37:59.807Z,64.7
2023-02-12T07:41:01.813Z,56.8
2023-02-12T07:44:03.777Z,49.1
2023-02-12T07:47:05.723Z,44.9
2023-02-12T07:50:07.654Z,62.8
2023-02-12T07:53:09.617Z,50.6
2023-02-12T07:56:11.606Z,51.6
2023-02-12T07:59:13.568Z,50.8
2023-02-12T08:02:15.581Z,56.9
2023-02-12T08:05:17.458Z,62.2
2023-02-12T08:08:19.421Z,65.4
2023-02-12T08:11:21.398Z,52.7
2023-02-12T08:14:23.336Z,49.4
2023-02-12T08:17:25.335Z,50.4
2023-02-12T08:20:27.274Z,50.3
2023-02-12T08:23:29.235Z,56.6
2023-02-12T08:26:31.212Z,52.1
2023-02-12T08:29:33.209Z,51.3
2023-02-12T08:32:35.173Z,54.4
2023-02-12T08:35:37.099Z,58
2023-02-12T08:38:39.108Z,56.8
2023-02-12T08:41:41.032Z,51.2
2023-02-12T08:44:43.004Z,61.1
2023-02-12T08:47:44.967Z,64.6
2023-02-12T08:50:46.930Z,57
2023-02-12T08:53:48.911Z,54.5
2023-02-12T08:56:50.966Z,54
2023-02-12T08:59:52.847Z,55.7
2023-02-12T09:02:54.757Z,60.4
2023-02-12T09:05:57.039Z,65.4
2023-02-12T09:08:58.698Z,62.8
2023-02-12T09:12:03.424Z,71.6
2023-02-12T09:15:05.424Z,63.7
2023-02-12T09:18:07.363Z,56.6
2023-02-12T09:21:09.314Z,57.4
2023-02-12T09:24:11.298Z,57.4
2023-02-12T09:27:13.342Z,52.8
2023-02-12T09:30:15.213Z,51.6
2023-02-12T09:33:17.188Z,54.1
2023-02-12T09:36:19.179Z,57.9
2023-02-12T09:39:21.105Z,56.4
2023-02-12T09:42:23.093Z,61.6
2023-02-12T09:45:25.044Z,53.3
2023-02-12T09:48:27.009Z,58
2023-02-12T09:51:28.969Z,66.9
2023-02-12T09:54:30.914Z,65.9
2023-02-12T09:57:32.919Z,70.5
2023-02-12T10:00:34.891Z,80.5
2023-02-12T10:03:36.863Z,69.9
2023-02-12T10:06:38.818Z,70.2
2023-02-12T10:09:40.758Z,76.7
2023-02-12T10:12:42.751Z,73.6
2023-02-12T10:15:44.761Z,68.1
2023-02-12T10:18:46.656Z,69.4
2023-02-12T10:21:48.653Z,72
2023-02-12T10:24:50.596Z,64.1
2023-02-12T10:27:52.571Z,64.8
2023-02-12T10:30:54.734Z,69
2023-02-12T10:33:56.502Z,65.7
2023-02-12T10:36:58.522Z,62.9
2023-02-12T10:40:00.417Z,74.1
2023-02-12T10:43:02.390Z,66.5
2023-02-12T10:46:04.415Z,59.1
2023-02-12T10:49:06.355Z,68.9
2023-02-12T10:52:08.280Z,66.6
2023-02-12T10:55:10.286Z,62.1
2023-02-12T10:58:12.250Z,67.1
2023-02-12T11:01:14.219Z,62.8
2023-02-12T11:04:16.191Z,64.4
2023-02-12T11:07:18.186Z,59
2023-02-12T11:10:20.139Z,59.8
2023-02-12T11:13:22.133Z,65.3
2023-02-12T11:16:24.109Z,59.2
2023-02-12T11:19:26.022Z,59.9
2023-02-12T11:22:28.015Z,64.9
2023-02-12T11:25:30.019Z,57.8
2023-02-12T11:28:32.073Z,55.9
2023-02-12T11:31:33.972Z,50.3
2023-02-12T11:34:35.874Z,49.5
2023-02-12T11:37:38.072Z,51.1
2023-02-12T11:40:39.809Z,55.4
2023-02-12T11:43:41.819Z,61.3
2023-02-12T11:46:43.804Z,51.8
2023-02-12T11:49:45.730Z,55.3
2023-02-12T11:52:47.686Z,49.6
2023-02-12T11:55:49.649Z,49.3
2023-02-12T11:58:51.695Z,57.8
2023-02-12T12:01:53.608Z,47.1
2023-02-12T12:04:55.527Z,50.4
2023-02-12T12:07:57.482Z,52.8
2023-02-12T12:10:59.470Z,52.8
2023-02-12T12:14:01.396Z,49
2023-02-12T12:17:03.370Z,50.4
2023-02-12T12:20:05.324Z,50
2023-02-12T12:23:07.299Z,49
2023-02-12T12:26:09.333Z,49.6
2023-02-12T12:29:11.243Z,52.9
2023-02-12T12:32:13.248Z,53.4
2023-02-12T12:35:15.204Z,48.6
2023-02-12T12:38:17.121Z,51.1
2023-02-12T12:41:19.078Z,47.2
2023-02-12T12:44:21.045Z,51.9
2023-02-12T12:47:22.993Z,49
2023-02-12T12:50:24.977Z,45.9
2023-02-12T12:53:26.927Z,46.9
2023-02-12T12:56:28.897Z,42.7
2023-02-12T12:59:30.849Z,44.2
2023-02-12T13:02:32.946Z,51.3
2023-02-12T13:05:34.802Z,39.1
2023-02-12T13:08:36.752Z,44.6
2023-02-12T13:11:38.745Z,37.3
2023-02-12T13:14:40.662Z,38.1
2023-02-12T13:17:42.619Z,43.7
2023-02-12T13:20:44.602Z,39.6
2023-02-12T13:23:46.607Z,45.6
2023-02-12T13:26:48.560Z,42.4
2023-02-12T13:29:50.484Z,39
2023-02-12T13:32:52.477Z,37.6
2023-02-12T13:35:54.684Z,39.1
2023-02-12T13:38:56.411Z,42.5
2023-02-12T13:41:58.364Z,42.4
2023-02-12T13:45:00.350Z,41.7
2023-02-12T13:48:02.290Z,35.8
2023-02-12T13:51:06.789Z,40.5
2023-02-12T13:54:06.263Z,34.5
2023-02-12T13:57:08.214Z,29.6
2023-02-12T14:00:10.223Z,29
2023-02-12T14:03:12.164Z,24.1
2023-02-12T14:06:14.150Z,21.6
2023-02-12T14:09:16.184Z,23.7
2023-02-12T14:12:18.149Z,26.2
2023-02-12T14:15:20.078Z,23.6
2023-02-12T14:18:22.027Z,20.5
2023-02-12T14:21:23.979Z,18.4
2023-02-12T14:24:25.948Z,17.8
2023-02-12T14:27:27.915Z,17
2023-02-12T14:30:29.880Z,16.2
2023-02-12T14:33:31.813Z,19.8
2023-02-12T14:36:33.794Z,17.1
2023-02-12T14:39:35.739Z,19.8
2023-02-12T14:42:37.708Z,18.2
2023-02-12T14:45:39.679Z,21.3
2023-02-12T14:48:41.646Z,19.6
2023-02-12T14:51:43.617Z,20.7
2023-02-12T14:54:45.579Z,19.8
2023-02-12T14:57:47.549Z,22.1
2023-02-12T15:00:49.533Z,21.5
2023-02-12T15:03:51.625Z,20.1
2023-02-12T15:06:53.477Z,17.5
2023-02-12T15:09:55.616Z,15.6
2023-02-12T15:12:57.411Z,14.9
2023-02-12T15:15:59.853Z,16.3
2023-02-12T15:19:01.344Z,16.2
2023-02-12T15:22:03.296Z,16.1
2023-02-12T15:25:05.248Z,16.7
2023-02-12T15:28:07.282Z,21
2023-02-12T15:31:09.322Z,19.3
2023-02-12T15:34:11.137Z,18
2023-02-12T15:37:13.096Z,17.7
2023-02-12T15:40:15.080Z,19.6
2023-02-12T15:43:17.046Z,18.5
2023-02-12T15:46:19.051Z,15
2023-02-12T15:49:20.999Z,19.6
2023-02-12T15:52:22.933Z,21.2
2023-02-12T15:55:24.994Z,21.6
2023-02-12T15:58:26.944Z,21.6
2023-02-12T16:01:28.948Z,20.7
2023-02-12T16:04:30.932Z,23.8
2023-02-12T16:07:32.861Z,35.1
2023-02-12T16:10:34.851Z,23.7
2023-02-12T16:13:36.784Z,21.1
2023-02-12T16:16:38.860Z,21.8
2023-02-12T16:19:40.692Z,19.8
2023-02-12T16:22:42.653Z,23.9
2023-02-12T16:25:44.624Z,24.1
2023-02-12T16:28:46.578Z,22.9
2023-02-12T16:31:48.587Z,21.6
2023-02-12T16:34:50.498Z,19.5
2023-02-12T16:37:52.478Z,21.7
2023-02-12T16:40:54.415Z,27.2
2023-02-12T16:43:56.352Z,26.1
2023-02-12T16:46:58.331Z,25
2023-02-12T16:50:00.285Z,23.2
2023-02-12T16:53:02.250Z,21
2023-02-12T16:56:04.198Z,22.9
2023-02-12T16:59:06.164Z,23
2023-02-12T17:02:08.117Z,25.4
2023-02-12T17:05:10.147Z,25.5
2023-02-12T17:08:12.051Z,25.3
2023-02-12T17:11:14.003Z,28.6
2023-02-12T17:14:15.976Z,26.1
2023-02-12T17:17:17.943Z,26.9
2023-02-12T17:20:19.898Z,27.1
2023-02-12T17:23:21.859Z,27.7
2023-02-12T17:26:23.825Z,27.6
2023-02-12T17:29:25.798Z,25.5
2023-02-12T17:32:27.743Z,27.8
2023-02-12T17:35:29.697Z,23
2023-02-12T17:38:31.678Z,34.2
2023-02-12T17:41:33.648Z,25.9
2023-02-12T17:44:35.597Z,26.1
2023-02-12T17:47:37.538Z,25.4
2023-02-12T17:50:39.541Z,22.1
2023-02-12T17:53:41.511Z,22.8
2023-02-12T17:56:43.498Z,23.1
2023-02-12T17:59:45.466Z,22.2
2023-02-12T18:02:47.414Z,23.6
2023-02-12T18:05:49.354Z,20.6
2023-02-12T18:08:51.332Z,22
2023-02-12T18:11:53.337Z,23
2023-02-12T18:14:55.294Z,23.3
2023-02-12T18:17:57.284Z,25.1
2023-02-12T18:20:59.417Z,22.6
2023-02-12T18:24:01.176Z,18.5
2023-02-12T18:27:03.122Z,24.1
2023-02-12T18:30:05.077Z,22.1
2023-02-12T18:33:07.055Z,22.9
2023-02-12T18:36:09.316Z,23.4
2023-02-12T18:39:11.287Z,19.5
2023-02-12T18:42:13.266Z,20.6
2023-02-12T18:45:15.183Z,19
2023-02-12T18:48:17.123Z,16.8
2023-02-12T18:51:19.103Z,19.2
2023-02-12T18:54:21.080Z,15.9
2023-02-12T18:57:23.033Z,14.8
2023-02-12T19:00:25.012Z,18.7
2023-02-12T19:03:26.940Z,16.3
2023-02-12T19:06:28.899Z,16.2
2023-02-12T19:09:30.853Z,17.7
2023-02-12T19:12:32.812Z,16.6
2023-02-12T19:15:34.817Z,13.5
2023-02-12T19:18:36.737Z,16.3
2023-02-12T19:21:38.702Z,14.8
2023-02-12T19:24:46.484Z,13.8
2023-02-12T19:27:42.684Z,16.2
2023-02-12T19:30:44.639Z,12.7
2023-02-12T19:33:46.601Z,14.6
2023-02-12T19:36:48.594Z,13.6
2023-02-12T19:39:50.514Z,14
2023-02-12T19:42:52.526Z,14.5
2023-02-12T19:45:54.522Z,15
2023-02-12T19:48:56.497Z,13.4
2023-02-12T19:51:58.405Z,12
2023-02-12T19:55:00.397Z,10.7
2023-02-12T19:58:02.344Z,12
2023-02-12T20:01:04.374Z,13.8
2023-02-12T20:04:06.297Z,12.2
2023-02-12T20:07:08.276Z,13.6
2023-02-12T20:10:10.176Z,10.6
2023-02-12T20:13:12.183Z,11.1
2023-02-12T20:16:14.194Z,11.8
2023-02-12T20:19:16.079Z,12.2
2023-02-12T20:22:18.073Z,10.7
2023-02-12T20:25:20.022Z,9.3
2023-02-12T20:28:22.061Z,9.4
2023-02-12T20:31:24.033Z,12.5
2023-02-12T20:34:25.862Z,11.3
2023-02-12T20:37:27.823Z,14.3
2023-02-12T20:40:29.784Z,11.1
2023-02-12T20:43:31.759Z,12.7
2023-02-12T20:46:33.718Z,14
2023-02-12T20:49:35.679Z,12.1
2023-02-12T20:52:37.634Z,12.9
2023-02-12T20:55:39.611Z,13.9
2023-02-12T20:58:41.592Z,12.3
2023-02-12T21:01:43.585Z,11.7
2023-02-12T21:04:45.480Z,12.2
2023-02-12T21:07:47.483Z,12.9
2023-02-12T21:10:49.414Z,12.2
2023-02-12T21:13:54.036Z,16.1
2023-02-12T21:16:53.326Z,15.4
2023-02-12T21:19:55.275Z,16.1
2023-02-12T21:22:57.242Z,14.7
2023-02-12T21:25:59.192Z,17.4
2023-02-12T21:29:01.152Z,13.3
2023-02-12T21:32:03.303Z,15.1
2023-02-12T21:35:05.087Z,16.8
2023-02-12T21:38:07.043Z,13.8
2023-02-12T21:41:09.023Z,16.2
2023-02-12T21:44:10.990Z,15
2023-02-12T21:47:12.958Z,13.9
2023-02-12T21:50:14.965Z,13.9
2023-02-12T21:53:16.918Z,17.6
2023-02-12T21:56:18.856Z,14.3
2023-02-12T21:59:20.806Z,12.6
2023-02-12T22:02:22.820Z,14.3
2023-02-12T22:05:24.724Z,13.3
2023-02-12T22:08:26.684Z,12.6
2023-02-12T22:11:28.718Z,13
2023-02-12T22:14:30.645Z,14.9
2023-02-12T22:17:32.577Z,12.5
2023-02-12T22:20:34.565Z,12.9
2023-02-12T22:23:36.533Z,13.5
2023-02-12T22:26:38.479Z,12.5
2023-02-12T22:29:40.427Z,11.3
2023-02-12T22:32:42.424Z,12
2023-02-12T22:35:44.366Z,13.5
2023-02-12T22:38:46.322Z,11.2
2023-02-12T22:41:48.266Z,11.7
2023-02-12T22:44:50.284Z,10.5
2023-02-12T22:47:52.244Z,10
2023-02-12T22:50:54.253Z,10.9
2023-02-12T22:53:56.124Z,11.1
2023-02-12T22:56:58.088Z,10.3
2023-02-12T23:00:00.195Z,11.3
2023-02-12T23:03:02.035Z,10.5
2023-02-12T23:06:03.987Z,11.2
2023-02-12T23:09:05.951Z,10.3
2023-02-12T23:12:07.948Z,12.1
2023-02-12T23:15:09.913Z,11.6
2023-02-12T23:18:11.826Z,9.6
2023-02-12T23:21:13.840Z,11.4
2023-02-12T23:24:15.803Z,12.5
2023-02-12T23:27:17.771Z,12.4
2023-02-12T23:30:19.958Z,9.6
2023-02-12T23:33:21.634Z,10.7
2023-02-12T23:36:23.609Z,9.3
2023-02-12T23:39:25.613Z,10.3
2023-02-12T23:42:27.546Z,7.9
2023-02-12T23:45:29.480Z,11.6
2023-02-12T23:48:31.454Z,9.6
2023-02-12T23:51:33.415Z,8.8
2023-02-12T23:54:35.364Z,9
2023-02-12T23:57:37.350Z,10.5
